sensor_id;sensor_type;location;lat;lon;timestamp;temperature;humidity
25436;DHT22;13363;52.772;-3.890;2023-01-01T00:01:14;11.10;99.90
25436;DHT22;13363;52.772;-3.890;2023-01-01T00:03:40;11.10;99.90
25436;DHT22;13363;52.772;-3.890;2023-01-01T00:06:12;11.10;99.90
25436;DHT22;13363;52.772;-3.890;2023-01-01T00:08:38;11.20;99.90
25436;DHT22;13363;52.772;-3.890;2023-01-01T00:11:06;11.10;99.90
25436;DHT22;13363;52.772;-3.890;2023-01-01T00:13:33;11.00;99.90
25436;DHT22;13363;52.772;-3.890;2023-01-01T00:16:09;10.80;99.90
25436;DHT22;13363;52.772;-3.890;2023-01-01T00:18:36;10.60;99.90
25436;DHT22;13363;52.772;-3.890;2023-01-01T00:21:10;10.50;99.90
25436;DHT22;13363;52.772;-3.890;2023-01-01T00:23:36;10.50;99.90
25436;DHT22;13363;52.772;-3.890;2023-01-01T00:26:09;10.40;99.90
25436;DHT22;13363;52.772;-3.890;2023-01-01T00:28:35;10.40;99.90
25436;DHT22;13363;52.772;-3.890;2023-01-01T00:31:06;10.30;99.90
25436;DHT22;13363;52.772;-3.890;2023-01-01T00:33:32;10.30;99.90
25436;DHT22;13363;52.772;-3.890;2023-01-01T00:36:06;10.10;99.90
25436;DHT22;13363;52.772;-3.890;2023-01-01T00:38:32;10.10;99.90
25436;DHT22;13363;52.772;-3.890;2023-01-01T00:40:58;10.00;99.90
25436;DHT22;13363;52.772;-3.890;2023-01-01T00:43:24;10.00;99.90
25436;DHT22;13363;52.772;-3.890;2023-01-01T00:45:49;10.10;99.90
25436;DHT22;13363;52.772;-3.890;2023-01-01T00:48:18;10.10;99.90
25436;DHT22;13363;52.772;-3.890;2023-01-01T00:50:46;10.10;99.90
25436;DHT22;13363;52.772;-3.890;2023-01-01T00:53:12;10.10;99.90
25436;DHT22;13363;52.772;-3.890;2023-01-01T00:55:42;10.10;99.90
25436;DHT22;13363;52.772;-3.890;2023-01-01T00:58:10;10.20;99.90
25436;DHT22;13363;52.772;-3.890;2023-01-01T01:00:37;10.10;99.90
25436;DHT22;13363;52.772;-3.890;2023-01-01T01:03:03;10.20;99.90
25436;DHT22;13363;52.772;-3.890;2023-01-01T01:05:29;10.20;99.90
25436;DHT22;13363;52.772;-3.890;2023-01-01T01:07:55;10.20;99.90
25436;DHT22;13363;52.772;-3.890;2023-01-01T01:10:20;10.10;99.90
25436;DHT22;13363;52.772;-3.890;2023-01-01T01:12:47;10.10;99.90
25436;DHT22;13363;52.772;-3.890;2023-01-01T01:15:13;10.20;99.90
25436;DHT22;13363;52.772;-3.890;2023-01-01T01:17:39;10.10;99.90
25436;DHT22;13363;52.772;-3.890;2023-01-01T01:20:06;10.20;99.90
25436;DHT22;13363;52.772;-3.890;2023-01-01T01:22:33;10.20;99.90
25436;DHT22;13363;52.772;-3.890;2023-01-01T01:25:02;10.20;99.90
25436;DHT22;13363;52.772;-3.890;2023-01-01T01:27:28;10.20;99.90
25436;DHT22;13363;52.772;-3.890;2023-01-01T01:29:54;10.20;99.90
25436;DHT22;13363;52.772;-3.890;2023-01-01T01:32:20;10.30;99.90
25436;DHT22;13363;52.772;-3.890;2023-01-01T01:34:46;10.20;99.90
25436;DHT22;13363;52.772;-3.890;2023-01-01T01:37:12;10.20;99.90
25436;DHT22;13363;52.772;-3.890;2023-01-01T01:39:38;10.20;99.90
25436;DHT22;13363;52.772;-3.890;2023-01-01T01:42:04;10.30;99.90
25436;DHT22;13363;52.772;-3.890;2023-01-01T01:47:34;10.30;99.90
25436;DHT22;13363;52.772;-3.890;2023-01-01T01:50:08;10.30;99.90
25436;DHT22;13363;52.772;-3.890;2023-01-01T01:52:39;10.30;99.90
25436;DHT22;13363;52.772;-3.890;2023-01-01T01:55:07;10.20;99.90
25436;DHT22;13363;52.772;-3.890;2023-01-01T01:57:35;10.10;99.90
25436;DHT22;13363;52.772;-3.890;2023-01-01T02:00:01;10.10;99.90
25436;DHT22;13363;52.772;-3.890;2023-01-01T02:02:35;10.10;99.90
25436;DHT22;13363;52.772;-3.890;2023-01-01T02:05:03;10.00;99.90
25436;DHT22;13363;52.772;-3.890;2023-01-01T02:07:30;10.00;99.90
25436;DHT22;13363;52.772;-3.890;2023-01-01T02:09:57;9.90;99.90
25436;DHT22;13363;52.772;-3.890;2023-01-01T02:12:25;9.90;99.90
25436;DHT22;13363;52.772;-3.890;2023-01-01T02:14:51;9.80;99.90
25436;DHT22;13363;52.772;-3.890;2023-01-01T02:23:04;9.30;99.90
25436;DHT22;13363;52.772;-3.890;2023-01-01T02:28:48;9.20;99.90
25436;DHT22;13363;52.772;-3.890;2023-01-01T02:31:18;9.20;99.90
25436;DHT22;13363;52.772;-3.890;2023-01-01T02:33:46;9.10;99.90
25436;DHT22;13363;52.772;-3.890;2023-01-01T02:36:12;9.10;99.90
25436;DHT22;13363;52.772;-3.890;2023-01-01T02:38:47;9.00;99.90
25436;DHT22;13363;52.772;-3.890;2023-01-01T02:41:37;9.10;99.90
25436;DHT22;13363;52.772;-3.890;2023-01-01T02:44:04;9.10;99.90
25436;DHT22;13363;52.772;-3.890;2023-01-01T02:46:34;9.10;99.90
25436;DHT22;13363;52.772;-3.890;2023-01-01T02:49:01;9.00;99.90
25436;DHT22;13363;52.772;-3.890;2023-01-01T02:52:00;9.20;99.90
25436;DHT22;13363;52.772;-3.890;2023-01-01T02:57:34;9.20;99.90
25436;DHT22;13363;52.772;-3.890;2023-01-01T03:00:08;9.30;99.90
25436;DHT22;13363;52.772;-3.890;2023-01-01T03:05:28;9.30;99.90
25436;DHT22;13363;52.772;-3.890;2023-01-01T03:08:17;9.30;99.90
25436;DHT22;13363;52.772;-3.890;2023-01-01T03:11:04;9.40;99.90
25436;DHT22;13363;52.772;-3.890;2023-01-01T03:19:01;9.80;99.90
25436;DHT22;13363;52.772;-3.890;2023-01-01T03:24:30;9.70;99.90
25436;DHT22;13363;52.772;-3.890;2023-01-01T03:27:03;9.80;99.90
25436;DHT22;13363;52.772;-3.890;2023-01-01T03:29:33;9.80;99.90
25436;DHT22;13363;52.772;-3.890;2023-01-01T03:32:03;9.80;99.90
25436;DHT22;13363;52.772;-3.890;2023-01-01T03:34:37;9.90;99.90
25436;DHT22;13363;52.772;-3.890;2023-01-01T03:37:09;9.80;99.90
25436;DHT22;13363;52.772;-3.890;2023-01-01T03:39:50;10.00;99.90
25436;DHT22;13363;52.772;-3.890;2023-01-01T03:42:27;10.00;99.90
25436;DHT22;13363;52.772;-3.890;2023-01-01T03:45:08;10.00;99.90
25436;DHT22;13363;52.772;-3.890;2023-01-01T03:47:36;10.00;99.90
25436;DHT22;13363;52.772;-3.890;2023-01-01T03:50:03;10.00;99.90
25436;DHT22;13363;52.772;-3.890;2023-01-01T03:52:59;10.00;99.90
25436;DHT22;13363;52.772;-3.890;2023-01-01T03:55:40;10.00;99.90
25436;DHT22;13363;52.772;-3.890;2023-01-01T03:58:39;10.00;99.90
25436;DHT22;13363;52.772;-3.890;2023-01-01T04:01:31;10.10;99.90
25436;DHT22;13363;52.772;-3.890;2023-01-01T04:03:58;10.20;99.90
25436;DHT22;13363;52.772;-3.890;2023-01-01T04:06:24;10.30;99.90
25436;DHT22;13363;52.772;-3.890;2023-01-01T10:50:57;10.90;99.90
25436;DHT22;13363;52.772;-3.890;2023-01-01T10:53:27;10.90;99.90
25436;DHT22;13363;52.772;-3.890;2023-01-01T11:01:01;10.80;99.90
25436;DHT22;13363;52.772;-3.890;2023-01-01T11:03:27;10.80;99.90
25436;DHT22;13363;52.772;-3.890;2023-01-01T11:06:20;10.80;99.90
25436;DHT22;13363;52.772;-3.890;2023-01-01T11:08:54;10.80;99.90
25436;DHT22;13363;52.772;-3.890;2023-01-01T11:11:36;10.80;99.90
25436;DHT22;13363;52.772;-3.890;2023-01-01T11:14:04;10.90;99.90
25436;DHT22;13363;52.772;-3.890;2023-01-01T11:16:37;11.00;99.90
25436;DHT22;13363;52.772;-3.890;2023-01-01T11:19:07;10.90;99.90
25436;DHT22;13363;52.772;-3.890;2023-01-01T11:21:45;11.00;99.90
25436;DHT22;13363;52.772;-3.890;2023-01-01T11:24:22;11.00;99.90
25436;DHT22;13363;52.772;-3.890;2023-01-01T11:26:49;10.90;99.90
25436;DHT22;13363;52.772;-3.890;2023-01-01T11:29:18;10.90;99.90
25436;DHT22;13363;52.772;-3.890;2023-01-01T11:31:45;10.90;99.90
25436;DHT22;13363;52.772;-3.890;2023-01-01T11:34:34;11.00;99.90
25436;DHT22;13363;52.772;-3.890;2023-01-01T11:39:45;11.10;99.90
25436;DHT22;13363;52.772;-3.890;2023-01-01T11:42:26;11.10;99.90
25436;DHT22;13363;52.772;-3.890;2023-01-01T11:45:07;11.20;99.90
25436;DHT22;13363;52.772;-3.890;2023-01-01T11:47:42;11.10;99.90
25436;DHT22;13363;52.772;-3.890;2023-01-01T11:52:44;11.10;99.90
25436;DHT22;13363;52.772;-3.890;2023-01-01T11:55:31;11.10;99.90
25436;DHT22;13363;52.772;-3.890;2023-01-01T12:00:41;11.20;99.90
25436;DHT22;13363;52.772;-3.890;2023-01-01T12:03:23;11.20;99.90
25436;DHT22;13363;52.772;-3.890;2023-01-01T12:06:20;11.20;99.90
25436;DHT22;13363;52.772;-3.890;2023-01-01T12:14:46;11.40;99.90
25436;DHT22;13363;52.772;-3.890;2023-01-01T12:17:17;11.50;99.90
25436;DHT22;13363;52.772;-3.890;2023-01-01T12:22:30;11.60;99.90
25436;DHT22;13363;52.772;-3.890;2023-01-01T12:24:56;11.70;99.90
25436;DHT22;13363;52.772;-3.890;2023-01-01T12:32:49;11.60;99.90
25436;DHT22;13363;52.772;-3.890;2023-01-01T12:40:44;11.50;99.90
25436;DHT22;13363;52.772;-3.890;2023-01-01T12:59:31;11.50;99.90
25436;DHT22;13363;52.772;-3.890;2023-01-01T13:02:02;11.60;99.90
25436;DHT22;13363;52.772;-3.890;2023-01-01T13:04:35;11.60;99.90
25436;DHT22;13363;52.772;-3.890;2023-01-01T13:07:07;11.60;99.90
25436;DHT22;13363;52.772;-3.890;2023-01-01T13:09:36;11.60;99.90
25436;DHT22;13363;52.772;-3.890;2023-01-01T13:12:08;11.60;99.90
25436;DHT22;13363;52.772;-3.890;2023-01-01T13:14:47;11.60;99.90
25436;DHT22;13363;52.772;-3.890;2023-01-01T13:17:30;11.50;99.90
25436;DHT22;13363;52.772;-3.890;2023-01-01T13:22:41;11.60;99.90
25436;DHT22;13363;52.772;-3.890;2023-01-01T13:30:54;11.70;99.90
25436;DHT22;13363;52.772;-3.890;2023-01-01T13:33:29;11.70;99.90
25436;DHT22;13363;52.772;-3.890;2023-01-01T13:38:51;11.70;99.90
25436;DHT22;13363;52.772;-3.890;2023-01-01T13:41:39;11.80;99.90
25436;DHT22;13363;52.772;-3.890;2023-01-01T13:52:41;12.00;99.90
25436;DHT22;13363;52.772;-3.890;2023-01-01T13:58:33;12.00;99.90
25436;DHT22;13363;52.772;-3.890;2023-01-01T14:03:41;11.90;99.90
25436;DHT22;13363;52.772;-3.890;2023-01-01T14:06:20;11.90;99.90
25436;DHT22;13363;52.772;-3.890;2023-01-01T14:09:08;11.90;99.90
25436;DHT22;13363;52.772;-3.890;2023-01-01T14:11:35;11.90;99.90
25436;DHT22;13363;52.772;-3.890;2023-01-01T14:14:01;11.90;99.90
25436;DHT22;13363;52.772;-3.890;2023-01-01T14:16:28;11.90;99.90
25436;DHT22;13363;52.772;-3.890;2023-01-01T14:18:59;11.90;99.90
25436;DHT22;13363;52.772;-3.890;2023-01-01T14:21:32;11.90;99.90
25436;DHT22;13363;52.772;-3.890;2023-01-01T14:24:04;11.80;99.90
25436;DHT22;13363;52.772;-3.890;2023-01-01T14:26:32;11.90;99.90
25436;DHT22;13363;52.772;-3.890;2023-01-01T14:29:08;11.80;99.90
25436;DHT22;13363;52.772;-3.890;2023-01-01T14:31:39;11.80;99.90
25436;DHT22;13363;52.772;-3.890;2023-01-01T14:34:32;11.80;99.90
25436;DHT22;13363;52.772;-3.890;2023-01-01T14:37:02;11.80;99.90
25436;DHT22;13363;52.772;-3.890;2023-01-01T14:39:34;11.80;99.90
25436;DHT22;13363;52.772;-3.890;2023-01-01T14:42:06;11.80;99.90
25436;DHT22;13363;52.772;-3.890;2023-01-01T14:44:35;11.80;99.90
25436;DHT22;13363;52.772;-3.890;2023-01-01T14:47:02;11.70;99.90
25436;DHT22;13363;52.772;-3.890;2023-01-01T14:49:35;11.60;99.90
25436;DHT22;13363;52.772;-3.890;2023-01-01T14:52:06;11.50;99.90
25436;DHT22;13363;52.772;-3.890;2023-01-01T14:54:36;11.60;99.90
25436;DHT22;13363;52.772;-3.890;2023-01-01T14:57:03;11.60;99.90
25436;DHT22;13363;52.772;-3.890;2023-01-01T14:59:33;11.50;99.90
25436;DHT22;13363;52.772;-3.890;2023-01-01T15:04:36;11.50;99.90
25436;DHT22;13363;52.772;-3.890;2023-01-01T15:07:02;11.40;99.90
25436;DHT22;13363;52.772;-3.890;2023-01-01T15:09:30;11.30;99.90
25436;DHT22;13363;52.772;-3.890;2023-01-01T15:11:57;11.30;99.90
25436;DHT22;13363;52.772;-3.890;2023-01-01T15:14:40;11.30;99.90
25436;DHT22;13363;52.772;-3.890;2023-01-01T15:17:13;11.20;99.90
25436;DHT22;13363;52.772;-3.890;2023-01-01T15:19:42;11.20;99.90
25436;DHT22;13363;52.772;-3.890;2023-01-01T15:22:29;11.10;99.90
25436;DHT22;13363;52.772;-3.890;2023-01-01T15:24:57;11.10;99.90
25436;DHT22;13363;52.772;-3.890;2023-01-01T15:27:32;11.10;99.90
25436;DHT22;13363;52.772;-3.890;2023-01-01T15:29:59;11.00;99.90
25436;DHT22;13363;52.772;-3.890;2023-01-01T15:32:34;11.00;99.90
25436;DHT22;13363;52.772;-3.890;2023-01-01T15:35:05;10.90;99.90
25436;DHT22;13363;52.772;-3.890;2023-01-01T15:37:34;10.80;99.90
25436;DHT22;13363;52.772;-3.890;2023-01-01T15:40:28;10.60;99.90
25436;DHT22;13363;52.772;-3.890;2023-01-01T15:45:28;10.30;99.90
25436;DHT22;13363;52.772;-3.890;2023-01-01T15:48:20;10.20;99.90
25436;DHT22;13363;52.772;-3.890;2023-01-01T15:53:22;9.70;99.90
25436;DHT22;13363;52.772;-3.890;2023-01-01T15:55:56;9.50;99.90
25436;DHT22;13363;52.772;-3.890;2023-01-01T15:58:47;9.40;99.90
25436;DHT22;13363;52.772;-3.890;2023-01-01T16:01:20;9.60;99.90
25436;DHT22;13363;52.772;-3.890;2023-01-01T16:03:48;9.80;99.90
25436;DHT22;13363;52.772;-3.890;2023-01-01T16:06:16;9.80;99.90
25436;DHT22;13363;52.772;-3.890;2023-01-01T16:08:43;9.80;99.90
25436;DHT22;13363;52.772;-3.890;2023-01-01T16:11:09;9.80;99.90
25436;DHT22;13363;52.772;-3.890;2023-01-01T16:13:36;9.70;99.90
25436;DHT22;13363;52.772;-3.890;2023-01-01T16:16:03;9.70;99.90
25436;DHT22;13363;52.772;-3.890;2023-01-01T16:18:32;9.60;99.90
25436;DHT22;13363;52.772;-3.890;2023-01-01T16:20:59;9.60;99.90
25436;DHT22;13363;52.772;-3.890;2023-01-01T16:23:25;9.50;99.90
25436;DHT22;13363;52.772;-3.890;2023-01-01T16:25:51;9.50;99.90
25436;DHT22;13363;52.772;-3.890;2023-01-01T16:28:17;9.50;99.90
25436;DHT22;13363;52.772;-3.890;2023-01-01T16:30:43;9.50;99.90
25436;DHT22;13363;52.772;-3.890;2023-01-01T16:33:16;9.40;99.90
25436;DHT22;13363;52.772;-3.890;2023-01-01T16:35:43;9.50;99.90
25436;DHT22;13363;52.772;-3.890;2023-01-01T16:38:09;9.50;99.90
25436;DHT22;13363;52.772;-3.890;2023-01-01T16:40:35;9.40;99.90
25436;DHT22;13363;52.772;-3.890;2023-01-01T16:43:01;9.40;99.90
25436;DHT22;13363;52.772;-3.890;2023-01-01T16:45:27;9.40;99.90
25436;DHT22;13363;52.772;-3.890;2023-01-01T16:47:53;9.40;99.90
25436;DHT22;13363;52.772;-3.890;2023-01-01T16:50:20;9.40;99.90
25436;DHT22;13363;52.772;-3.890;2023-01-01T16:52:47;9.40;99.90
25436;DHT22;13363;52.772;-3.890;2023-01-01T16:55:13;9.50;99.90
25436;DHT22;13363;52.772;-3.890;2023-01-01T16:57:42;9.40;99.90
25436;DHT22;13363;52.772;-3.890;2023-01-01T17:00:11;9.40;99.90
25436;DHT22;13363;52.772;-3.890;2023-01-01T17:02:37;9.40;99.90
25436;DHT22;13363;52.772;-3.890;2023-01-01T17:05:03;9.40;99.90
25436;DHT22;13363;52.772;-3.890;2023-01-01T17:07:29;9.30;99.90
25436;DHT22;13363;52.772;-3.890;2023-01-01T17:09:55;9.20;99.90
25436;DHT22;13363;52.772;-3.890;2023-01-01T17:12:21;9.20;99.90
25436;DHT22;13363;52.772;-3.890;2023-01-01T17:14:47;9.20;99.90
25436;DHT22;13363;52.772;-3.890;2023-01-01T17:17:12;9.10;99.90
25436;DHT22;13363;52.772;-3.890;2023-01-01T17:19:38;9.00;99.90
25436;DHT22;13363;52.772;-3.890;2023-01-01T17:22:04;9.00;99.90
25436;DHT22;13363;52.772;-3.890;2023-01-01T17:24:30;9.10;99.90
25436;DHT22;13363;52.772;-3.890;2023-01-01T17:26:56;9.10;99.90
25436;DHT22;13363;52.772;-3.890;2023-01-01T17:29:23;8.90;99.90
25436;DHT22;13363;52.772;-3.890;2023-01-01T17:31:49;9.00;99.90
25436;DHT22;13363;52.772;-3.890;2023-01-01T17:34:15;8.90;99.90
25436;DHT22;13363;52.772;-3.890;2023-01-01T17:36:42;8.80;99.90
25436;DHT22;13363;52.772;-3.890;2023-01-01T17:39:15;8.90;99.90
25436;DHT22;13363;52.772;-3.890;2023-01-01T17:41:42;8.90;99.90
25436;DHT22;13363;52.772;-3.890;2023-01-01T17:44:09;8.80;99.90
25436;DHT22;13363;52.772;-3.890;2023-01-01T17:46:36;8.80;99.90
25436;DHT22;13363;52.772;-3.890;2023-01-01T17:49:03;8.90;99.90
25436;DHT22;13363;52.772;-3.890;2023-01-01T17:51:29;8.90;99.90
25436;DHT22;13363;52.772;-3.890;2023-01-01T17:53:59;8.90;99.90
25436;DHT22;13363;52.772;-3.890;2023-01-01T17:56:31;9.00;99.90
25436;DHT22;13363;52.772;-3.890;2023-01-01T17:59:05;8.90;99.90
25436;DHT22;13363;52.772;-3.890;2023-01-01T18:56:42;8.00;99.90
25436;DHT22;13363;52.772;-3.890;2023-01-01T18:59:23;7.90;99.90
25436;DHT22;13363;52.772;-3.890;2023-01-01T19:01:49;7.90;99.90
25436;DHT22;13363;52.772;-3.890;2023-01-01T19:04:15;7.90;99.90
25436;DHT22;13363;52.772;-3.890;2023-01-01T19:06:44;7.90;99.90
25436;DHT22;13363;52.772;-3.890;2023-01-01T19:09:22;7.90;99.90
25436;DHT22;13363;52.772;-3.890;2023-01-01T19:11:50;7.90;99.90
25436;DHT22;13363;52.772;-3.890;2023-01-01T19:14:18;8.00;99.90
25436;DHT22;13363;52.772;-3.890;2023-01-01T19:16:47;8.00;99.90
25436;DHT22;13363;52.772;-3.890;2023-01-01T19:19:20;8.00;99.90
25436;DHT22;13363;52.772;-3.890;2023-01-01T19:21:48;8.10;99.90
25436;DHT22;13363;52.772;-3.890;2023-01-01T19:24:18;8.10;99.90
25436;DHT22;13363;52.772;-3.890;2023-01-01T19:26:47;8.10;99.90
25436;DHT22;13363;52.772;-3.890;2023-01-01T19:29:20;8.00;99.90
25436;DHT22;13363;52.772;-3.890;2023-01-01T19:31:53;8.00;99.90
25436;DHT22;13363;52.772;-3.890;2023-01-01T19:34:20;8.10;99.90
25436;DHT22;13363;52.772;-3.890;2023-01-01T19:36:46;8.00;99.90
25436;DHT22;13363;52.772;-3.890;2023-01-01T19:39:13;8.00;99.90
25436;DHT22;13363;52.772;-3.890;2023-01-01T19:41:39;8.00;99.90
25436;DHT22;13363;52.772;-3.890;2023-01-01T19:44:06;8.00;99.90
25436;DHT22;13363;52.772;-3.890;2023-01-01T19:46:32;8.00;99.90
25436;DHT22;13363;52.772;-3.890;2023-01-01T19:48:58;8.10;99.90
25436;DHT22;13363;52.772;-3.890;2023-01-01T19:51:25;8.10;99.90
25436;DHT22;13363;52.772;-3.890;2023-01-01T19:53:52;8.10;99.90
25436;DHT22;13363;52.772;-3.890;2023-01-01T19:56:18;8.00;99.90
25436;DHT22;13363;52.772;-3.890;2023-01-01T19:58:45;8.00;99.90
25436;DHT22;13363;52.772;-3.890;2023-01-01T20:01:11;8.00;99.90
25436;DHT22;13363;52.772;-3.890;2023-01-01T20:03:37;7.90;99.90
25436;DHT22;13363;52.772;-3.890;2023-01-01T20:06:04;7.90;99.90
25436;DHT22;13363;52.772;-3.890;2023-01-01T20:08:30;7.80;99.90
25436;DHT22;13363;52.772;-3.890;2023-01-01T20:10:57;7.80;99.90
25436;DHT22;13363;52.772;-3.890;2023-01-01T20:13:23;7.70;99.90
25436;DHT22;13363;52.772;-3.890;2023-01-01T20:15:48;7.60;99.90
25436;DHT22;13363;52.772;-3.890;2023-01-01T20:18:14;7.60;99.90
25436;DHT22;13363;52.772;-3.890;2023-01-01T20:20:40;7.60;99.90
25436;DHT22;13363;52.772;-3.890;2023-01-01T20:23:27;7.50;99.90
25436;DHT22;13363;52.772;-3.890;2023-01-01T20:25:52;7.60;99.90
25436;DHT22;13363;52.772;-3.890;2023-01-01T20:28:18;7.60;99.90
25436;DHT22;13363;52.772;-3.890;2023-01-01T20:31:03;7.60;99.90
25436;DHT22;13363;52.772;-3.890;2023-01-01T20:33:29;7.70;99.90
25436;DHT22;13363;52.772;-3.890;2023-01-01T20:35:54;7.70;99.90
25436;DHT22;13363;52.772;-3.890;2023-01-01T20:38:39;7.80;99.90
25436;DHT22;13363;52.772;-3.890;2023-01-01T20:41:05;7.80;99.90
25436;DHT22;13363;52.772;-3.890;2023-01-01T20:43:52;8.00;99.90
25436;DHT22;13363;52.772;-3.890;2023-01-01T20:46:19;7.90;99.90
25436;DHT22;13363;52.772;-3.890;2023-01-01T20:48:44;7.90;99.90
25436;DHT22;13363;52.772;-3.890;2023-01-01T20:51:10;7.90;99.90
25436;DHT22;13363;52.772;-3.890;2023-01-01T20:53:36;7.80;99.90
25436;DHT22;13363;52.772;-3.890;2023-01-01T20:56:02;7.80;99.90
25436;DHT22;13363;52.772;-3.890;2023-01-01T20:58:28;7.80;99.90
25436;DHT22;13363;52.772;-3.890;2023-01-01T21:00:53;7.80;99.90
25436;DHT22;13363;52.772;-3.890;2023-01-01T21:03:19;7.80;99.90
25436;DHT22;13363;52.772;-3.890;2023-01-01T21:05:45;7.80;99.90
25436;DHT22;13363;52.772;-3.890;2023-01-01T21:08:11;7.80;99.90
25436;DHT22;13363;52.772;-3.890;2023-01-01T21:10:40;7.80;99.90
25436;DHT22;13363;52.772;-3.890;2023-01-01T21:13:06;7.90;99.90
25436;DHT22;13363;52.772;-3.890;2023-01-01T21:15:32;7.90;99.90
25436;DHT22;13363;52.772;-3.890;2023-01-01T21:17:59;7.90;99.90
25436;DHT22;13363;52.772;-3.890;2023-01-01T21:20:26;7.90;99.90
25436;DHT22;13363;52.772;-3.890;2023-01-01T21:22:57;7.80;99.90
25436;DHT22;13363;52.772;-3.890;2023-01-01T21:25:25;7.80;99.90
25436;DHT22;13363;52.772;-3.890;2023-01-01T21:27:52;7.80;99.90
25436;DHT22;13363;52.772;-3.890;2023-01-01T21:30:19;7.80;99.90
25436;DHT22;13363;52.772;-3.890;2023-01-01T21:32:47;7.70;99.90
25436;DHT22;13363;52.772;-3.890;2023-01-01T21:35:25;7.70;99.90
25436;DHT22;13363;52.772;-3.890;2023-01-01T21:37:59;7.80;99.90
25436;DHT22;13363;52.772;-3.890;2023-01-01T21:40:39;7.80;99.90
25436;DHT22;13363;52.772;-3.890;2023-01-01T21:45:45;7.90;99.90
25436;DHT22;13363;52.772;-3.890;2023-01-01T21:48:15;7.90;99.90
25436;DHT22;13363;52.772;-3.890;2023-01-01T21:50:45;7.90;99.90
25436;DHT22;13363;52.772;-3.890;2023-01-01T21:53:15;7.90;99.90
25436;DHT22;13363;52.772;-3.890;2023-01-01T21:55:46;7.90;99.90
25436;DHT22;13363;52.772;-3.890;2023-01-01T21:58:22;7.90;99.90
25436;DHT22;13363;52.772;-3.890;2023-01-01T22:01:29;7.90;99.90
25436;DHT22;13363;52.772;-3.890;2023-01-01T22:06:43;7.90;99.90
25436;DHT22;13363;52.772;-3.890;2023-01-01T22:11:47;8.00;99.90
25436;DHT22;13363;52.772;-3.890;2023-01-01T22:14:18;8.00;99.90
25436;DHT22;13363;52.772;-3.890;2023-01-01T22:16:46;8.00;99.90
25436;DHT22;13363;52.772;-3.890;2023-01-01T22:19:17;8.10;99.90
25436;DHT22;13363;52.772;-3.890;2023-01-01T22:21:44;8.10;99.90
25436;DHT22;13363;52.772;-3.890;2023-01-01T22:26:51;8.20;99.90
25436;DHT22;13363;52.772;-3.890;2023-01-01T22:29:23;8.20;99.90
25436;DHT22;13363;52.772;-3.890;2023-01-01T22:32:02;8.10;99.90
25436;DHT22;13363;52.772;-3.890;2023-01-01T22:34:38;8.00;99.90
25436;DHT22;13363;52.772;-3.890;2023-01-01T22:37:16;8.00;99.90
25436;DHT22;13363;52.772;-3.890;2023-01-01T22:39:43;8.10;99.90
25436;DHT22;13363;52.772;-3.890;2023-01-01T22:42:14;8.10;99.90
25436;DHT22;13363;52.772;-3.890;2023-01-01T22:44:41;8.10;99.90
25436;DHT22;13363;52.772;-3.890;2023-01-01T22:47:16;8.10;99.90
25436;DHT22;13363;52.772;-3.890;2023-01-01T22:49:44;8.10;99.90
25436;DHT22;13363;52.772;-3.890;2023-01-01T22:52:15;8.10;99.90
25436;DHT22;13363;52.772;-3.890;2023-01-01T22:54:41;8.10;99.90
25436;DHT22;13363;52.772;-3.890;2023-01-01T22:57:07;8.10;99.90
25436;DHT22;13363;52.772;-3.890;2023-01-01T22:59:33;8.20;99.90
25436;DHT22;13363;52.772;-3.890;2023-01-01T23:01:58;8.20;99.90
25436;DHT22;13363;52.772;-3.890;2023-01-01T23:04:25;8.20;99.90
25436;DHT22;13363;52.772;-3.890;2023-01-01T23:06:52;8.10;99.90
25436;DHT22;13363;52.772;-3.890;2023-01-01T23:09:18;8.10;99.90
25436;DHT22;13363;52.772;-3.890;2023-01-01T23:11:44;8.10;99.90
25436;DHT22;13363;52.772;-3.890;2023-01-01T23:14:10;8.10;99.90
25436;DHT22;13363;52.772;-3.890;2023-01-01T23:16:54;8.10;99.90
25436;DHT22;13363;52.772;-3.890;2023-01-01T23:19:20;8.00;99.90
25436;DHT22;13363;52.772;-3.890;2023-01-01T23:21:46;8.00;99.90
25436;DHT22;13363;52.772;-3.890;2023-01-01T23:24:17;8.00;99.90
25436;DHT22;13363;52.772;-3.890;2023-01-01T23:26:45;8.00;99.90
25436;DHT22;13363;52.772;-3.890;2023-01-01T23:29:13;8.00;99.90
25436;DHT22;13363;52.772;-3.890;2023-01-01T23:31:40;8.00;99.90
25436;DHT22;13363;52.772;-3.890;2023-01-01T23:34:06;8.10;99.90
25436;DHT22;13363;52.772;-3.890;2023-01-01T23:36:33;8.10;99.90
25436;DHT22;13363;52.772;-3.890;2023-01-01T23:38:59;8.10;99.90
25436;DHT22;13363;52.772;-3.890;2023-01-01T23:41:25;8.10;99.90
25436;DHT22;13363;52.772;-3.890;2023-01-01T23:43:51;8.10;99.90
25436;DHT22;13363;52.772;-3.890;2023-01-01T23:46:17;8.10;99.90
25436;DHT22;13363;52.772;-3.890;2023-01-01T23:48:44;8.10;99.90
25436;DHT22;13363;52.772;-3.890;2023-01-01T23:51:11;8.10;99.90
25436;DHT22;13363;52.772;-3.890;2023-01-01T23:53:37;8.10;99.90
25436;DHT22;13363;52.772;-3.890;2023-01-01T23:56:03;8.20;99.90
25436;DHT22;13363;52.772;-3.890;2023-01-01T23:58:29;8.10;99.90
